createdAt,value
2022-10-09T00:03:19.464Z,8.68
2022-10-09T00:08:21.210Z,9.32
2022-10-09T00:13:22.933Z,8.48
2022-10-09T00:18:24.668Z,7.88
2022-10-09T00:23:26.602Z,11.25
2022-10-09T00:28:30.221Z,8.07
2022-10-09T00:33:31.929Z,8.63
2022-10-09T00:38:34.137Z,8.60
2022-10-09T00:43:56.639Z,7.70
2022-10-09T00:49:06.721Z,8.13
2022-10-09T00:54:12.460Z,8.43
2022-10-09T00:59:15.048Z,8.27
2022-10-09T01:04:16.728Z,8.32
2022-10-09T01:09:23.384Z,7.50
2022-10-09T01:14:37.483Z,11.50
2022-10-09T01:19:53.551Z,8.52
2022-10-09T01:25:03.888Z,8.77
2022-10-09T01:30:11.972Z,7.93
2022-10-09T01:35:15.295Z,9.05
2022-10-09T01:40:18.113Z,9.57
2022-10-09T01:45:19.752Z,10.18
2022-10-09T01:50:33.118Z,11.13
2022-10-09T01:55:59.822Z,8.68
2022-10-09T02:01:04.559Z,8.43
2022-10-09T02:06:08.940Z,8.65
2022-10-09T02:11:11.562Z,11.93
2022-10-09T02:16:22.665Z,8.73
2022-10-09T02:21:31.554Z,8.43
2022-10-09T02:26:33.224Z,9.20
2022-10-09T02:31:37.975Z,9.65
2022-10-09T02:36:40.455Z,10.05
2022-10-09T02:41:42.208Z,9.18
2022-10-09T02:46:43.886Z,10.05
2022-10-09T02:51:45.622Z,8.07
2022-10-09T02:56:47.287Z,9.50
2022-10-09T03:01:49.035Z,11.60
2022-10-09T03:06:50.769Z,10.65
2022-10-09T03:11:52.676Z,10.38
2022-10-09T03:16:54.338Z,9.82
2022-10-09T03:21:56.040Z,10.32
2022-10-09T03:26:57.678Z,10.30
2022-10-09T03:31:59.402Z,10.52
2022-10-09T03:37:01.156Z,11.90
2022-10-09T03:42:02.852Z,10.05
2022-10-09T03:47:04.568Z,13.60
2022-10-09T03:52:06.243Z,10.45
2022-10-09T03:57:07.911Z,12.23
2022-10-09T04:02:09.573Z,12.40
2022-10-09T04:07:11.301Z,10.70
2022-10-09T04:12:12.946Z,11.93
2022-10-09T04:17:14.573Z,11.60
2022-10-09T04:22:16.408Z,12.82
2022-10-09T04:27:18.085Z,11.32
2022-10-09T04:32:19.837Z,12.40
2022-10-09T04:37:21.514Z,12.55
2022-10-09T04:42:23.242Z,14.10
2022-10-09T04:47:24.957Z,13.07
2022-10-09T04:52:26.739Z,12.90
2022-10-09T04:57:28.384Z,12.10
2022-10-09T05:02:31.071Z,12.73
2022-10-09T05:07:32.916Z,13.50
2022-10-09T05:12:34.563Z,12.43
2022-10-09T05:17:36.326Z,16.38
2022-10-09T05:22:38.216Z,15.65
2022-10-09T05:27:39.914Z,12.93
2022-10-09T05:32:41.542Z,14.07
2022-10-09T05:37:45.386Z,17.92
2022-10-09T05:42:50.307Z,19.50
2022-10-09T05:47:52.194Z,21.58
2022-10-09T05:52:53.814Z,18.23
2022-10-09T05:57:55.466Z,15.98
2022-10-09T06:02:57.174Z,15.88
2022-10-09T06:07:58.884Z,14.45
2022-10-09T06:13:00.625Z,15.00
2022-10-09T06:18:02.279Z,12.48
2022-10-09T06:23:03.911Z,14.98
2022-10-09T06:28:05.648Z,12.63
2022-10-09T06:33:07.458Z,12.98
2022-10-09T06:38:09.382Z,17.33
2022-10-09T06:43:11.437Z,11.90
2022-10-09T06:48:13.062Z,12.25
2022-10-09T06:53:14.782Z,14.95
2022-10-09T06:58:16.396Z,11.82
2022-10-09T07:03:18.069Z,12.45
2022-10-09T07:08:19.681Z,11.63
2022-10-09T07:13:21.310Z,8.82
2022-10-09T07:18:22.940Z,10.60
2022-10-09T07:23:24.561Z,10.82
2022-10-09T07:28:28.245Z,9.75
2022-10-09T07:33:30.107Z,9.57
2022-10-09T07:38:32.539Z,8.85
2022-10-09T07:43:42.052Z,9.10
2022-10-09T07:48:44.123Z,8.10
2022-10-09T07:53:46.259Z,8.68
2022-10-09T07:58:52.989Z,11.45
2022-10-09T08:03:55.297Z,10.07
2022-10-09T08:09:00.585Z,10.60
2022-10-09T08:14:02.310Z,10.93
2022-10-09T08:19:04.574Z,9.73
2022-10-09T08:24:06.751Z,12.30
2022-10-09T08:29:08.545Z,8.57
2022-10-09T08:34:11.454Z,10.40
2022-10-09T08:39:14.290Z,8.68
2022-10-09T08:44:23.939Z,10.48
2022-10-09T08:49:44.563Z,9.07
2022-10-09T08:54:46.290Z,7.60
2022-10-09T08:59:48.125Z,9.48
2022-10-09T09:05:19.677Z,10.95
2022-10-09T09:10:30.102Z,6.78
2022-10-09T09:15:47.324Z,11.25
2022-10-09T09:20:54.125Z,9.82
2022-10-09T09:25:56.587Z,7.43
2022-10-09T09:31:02.941Z,9.82
2022-10-09T09:36:30.682Z,9.02
2022-10-09T09:41:32.412Z,10.68
2022-10-09T09:46:34.787Z,9.15
2022-10-09T09:51:36.814Z,5.18
2022-10-09T09:57:11.154Z,8.32
2022-10-09T10:02:13.665Z,5.00
2022-10-09T10:07:15.484Z,5.05
2022-10-09T10:12:18.413Z,6.68
2022-10-09T10:17:28.344Z,4.38
2022-10-09T10:22:35.949Z,4.63
2022-10-09T10:27:40.914Z,8.98
2022-10-09T10:33:08.045Z,4.25
2022-10-09T10:38:42.179Z,4.07
2022-10-09T10:43:48.565Z,5.32
2022-10-09T10:48:51.638Z,8.77
2022-10-09T10:54:11.470Z,4.68
2022-10-09T10:59:22.253Z,4.13
2022-10-09T11:04:46.268Z,9.40
2022-10-09T11:09:52.993Z,2.47
2022-10-09T11:15:07.677Z,4.88
2022-10-09T11:20:42.460Z,4.40
2022-10-09T11:25:44.089Z,5.78
2022-10-09T11:30:59.489Z,3.88
2022-10-09T11:36:20.256Z,4.75
2022-10-09T11:41:22.411Z,4.78
2022-10-09T11:46:28.620Z,5.03
2022-10-09T11:51:58.305Z,3.85
2022-10-09T11:57:05.849Z,4.65
2022-10-09T12:02:26.188Z,5.57
2022-10-09T12:07:35.398Z,7.03
2022-10-09T12:12:38.804Z,4.78
2022-10-09T12:17:49.780Z,4.13
2022-10-09T12:23:24.664Z,2.55
2022-10-09T12:28:29.429Z,5.18
2022-10-09T12:33:43.525Z,4.55
2022-10-09T12:38:45.265Z,4.55
2022-10-09T12:43:48.528Z,9.75
2022-10-09T12:48:50.249Z,2.95
2022-10-09T12:53:53.335Z,1.85
2022-10-09T12:58:57.423Z,2.60
2022-10-09T13:04:03.358Z,3.47
2022-10-09T13:09:07.852Z,2.17
2022-10-09T13:14:33.525Z,2.45
2022-10-09T13:19:35.772Z,2.75
2022-10-09T13:24:37.503Z,3.03
2022-10-09T13:29:39.408Z,2.92
2022-10-09T13:34:41.486Z,2.70
2022-10-09T13:39:43.348Z,1.67
2022-10-09T13:44:45.022Z,4.80
2022-10-09T13:49:46.728Z,2.83
2022-10-09T13:54:48.729Z,3.30
2022-10-09T13:59:50.425Z,2.65
2022-10-09T14:04:52.823Z,2.08
2022-10-09T14:09:54.470Z,2.72
2022-10-09T14:14:56.189Z,2.70
2022-10-09T14:19:58.040Z,2.95
2022-10-09T14:24:59.706Z,3.95
2022-10-09T14:30:02.656Z,2.28
2022-10-09T14:35:04.610Z,3.28
2022-10-09T14:40:06.519Z,2.75
2022-10-09T14:45:09.189Z,3.47
2022-10-09T14:50:10.887Z,4.53
2022-10-09T14:55:12.620Z,2.47
2022-10-09T15:00:14.866Z,3.10
2022-10-09T15:05:16.594Z,3.13
2022-10-09T15:10:18.275Z,2.13
2022-10-09T15:15:19.986Z,3.08
2022-10-09T15:20:21.627Z,4.07
2022-10-09T15:25:24.124Z,3.45
2022-10-09T15:30:26.337Z,3.40
2022-10-09T15:35:27.970Z,3.30
2022-10-09T15:40:29.674Z,2.33
2022-10-09T15:45:33.883Z,3.35
2022-10-09T15:50:36.980Z,2.80
2022-10-09T15:55:38.731Z,3.95
2022-10-09T16:00:43.368Z,2.85
2022-10-09T16:05:48.914Z,3.92
2022-10-09T16:10:51.972Z,2.67
2022-10-09T16:15:53.977Z,2.63
2022-10-09T16:20:55.606Z,6.43
2022-10-09T16:25:59.387Z,2.90
2022-10-09T16:31:01.123Z,3.95
2022-10-09T16:36:11.199Z,7.55
2022-10-09T16:41:17.814Z,4.63
2022-10-09T16:51:36.600Z,3.03
2022-10-09T16:56:40.289Z,4.35
2022-10-09T17:01:45.117Z,3.58
2022-10-09T17:06:46.899Z,4.63
2022-10-09T17:11:48.980Z,4.13
2022-10-09T17:16:50.641Z,3.67
2022-10-09T17:21:52.322Z,3.35
2022-10-09T17:26:54.027Z,5.85
2022-10-09T17:31:55.637Z,4.18
2022-10-09T17:36:57.358Z,4.00
2022-10-09T17:41:59.032Z,6.10
2022-10-09T17:47:00.891Z,7.75
2022-10-09T17:52:02.648Z,5.82
2022-10-09T17:57:06.856Z,3.13
2022-10-09T18:02:08.594Z,4.07
2022-10-09T18:07:10.224Z,5.05
2022-10-09T18:12:11.878Z,4.70
2022-10-09T18:17:14.205Z,4.50
2022-10-09T18:22:15.812Z,4.20
2022-10-09T18:27:17.834Z,4.00
2022-10-09T18:32:19.447Z,3.38
2022-10-09T18:37:21.218Z,3.83
2022-10-09T18:42:22.873Z,4.15
2022-10-09T18:47:28.413Z,4.82
2022-10-09T18:52:30.479Z,9.02
2022-10-09T18:57:33.313Z,9.02
2022-10-09T19:02:35.129Z,5.90
2022-10-09T19:07:36.878Z,6.95
2022-10-09T19:12:39.691Z,3.67
2022-10-09T19:17:41.481Z,3.63
2022-10-09T19:22:43.204Z,3.42
2022-10-09T19:27:44.919Z,6.43
2022-10-09T19:32:46.736Z,4.68
2022-10-09T19:37:48.709Z,6.05
2022-10-09T19:42:50.651Z,6.90
2022-10-09T19:47:54.289Z,7.55
2022-10-09T19:52:56.723Z,4.15
2022-10-09T19:57:58.582Z,8.02
2022-10-09T20:03:00.276Z,3.88
2022-10-09T20:08:02.027Z,5.55
2022-10-09T20:13:04.674Z,4.55
2022-10-09T20:18:06.369Z,4.57
2022-10-09T20:23:08.032Z,4.82
2022-10-09T20:28:09.773Z,6.25
2022-10-09T20:33:11.508Z,6.03
2022-10-09T20:38:14.296Z,4.15
2022-10-09T20:43:15.990Z,5.85
2022-10-09T20:48:17.715Z,3.92
2022-10-09T20:53:19.431Z,3.17
2022-10-09T20:58:21.124Z,5.47
2022-10-09T21:03:23.052Z,5.53
2022-10-09T21:08:24.768Z,6.05
2022-10-09T21:13:26.876Z,5.40
2022-10-09T21:18:28.641Z,6.78
2022-10-09T21:23:30.290Z,6.95
2022-10-09T21:28:32.099Z,6.45
2022-10-09T21:33:33.829Z,5.45
2022-10-09T21:38:35.558Z,9.77
2022-10-09T21:43:37.267Z,10.80
2022-10-09T21:48:39.157Z,5.88
2022-10-09T21:53:40.875Z,4.72
2022-10-09T21:58:48.119Z,6.68
2022-10-09T22:03:50.602Z,5.53
2022-10-09T22:08:53.211Z,5.18
2022-10-09T22:13:57.920Z,6.63
2022-10-09T22:19:01.131Z,5.25
2022-10-09T22:24:03.053Z,8.52
2022-10-09T22:29:04.715Z,5.63
2022-10-09T22:34:06.365Z,8.27
2022-10-09T22:39:08.405Z,5.30
2022-10-09T22:44:11.277Z,4.88
2022-10-09T22:49:15.565Z,4.00
2022-10-09T22:54:18.952Z,6.22
2022-10-09T22:59:20.665Z,7.65
2022-10-09T23:04:23.385Z,6.00
2022-10-09T23:09:27.995Z,5.40
2022-10-09T23:14:29.673Z,5.40
2022-10-09T23:19:31.303Z,8.07
2022-10-09T23:24:32.935Z,6.65
2022-10-09T23:29:34.554Z,6.47
2022-10-09T23:34:36.226Z,5.28
2022-10-09T23:39:37.917Z,4.18
2022-10-09T23:44:39.671Z,6.20
2022-10-09T23:49:41.282Z,6.63
2022-10-09T23:54:43.060Z,7.05
2022-10-09T23:59:44.793Z,5.20
